createdAt,value
2018-03-15T00:00:11.401Z,26.83
2018-03-15T00:02:40.144Z,26.02
2018-03-15T00:05:09.109Z,26.33
2018-03-15T00:07:37.977Z,25.52
2018-03-15T00:10:06.845Z,24.35
2018-03-15T00:12:35.695Z,23.33
2018-03-15T00:15:05.365Z,23.50
2018-03-15T00:17:34.238Z,23.35
2018-03-15T00:20:03.338Z,24.23
2018-03-15T00:22:33.603Z,23.83
2018-03-15T00:25:02.566Z,20.45
2018-03-15T00:27:31.402Z,10.68
2018-03-15T00:30:01.073Z,7.68
2018-03-15T00:32:30.525Z,6.22
2018-03-15T00:35:00.206Z,5.50
2018-03-15T00:37:29.294Z,5.55
2018-03-15T00:39:58.365Z,5.43
2018-03-15T00:42:28.366Z,5.70
2018-03-15T00:44:57.150Z,5.87
2018-03-15T00:47:25.961Z,6.50
2018-03-15T00:49:54.938Z,8.20
2018-03-15T00:52:23.704Z,10.63
2018-03-15T00:54:53.712Z,11.93
2018-03-15T00:57:22.534Z,13.25
2018-03-15T00:59:51.310Z,23.83
2018-03-15T01:02:20.162Z,27.67
2018-03-15T01:04:48.945Z,36.55
2018-03-15T01:07:18.018Z,44.90
2018-03-15T01:09:46.861Z,27.48
2018-03-15T01:12:16.548Z,24.58
2018-03-15T01:14:46.157Z,22.65
2018-03-15T01:17:14.967Z,18.62
2018-03-15T01:19:43.921Z,19.08
2018-03-15T01:22:13.546Z,18.33
2018-03-15T01:24:43.209Z,20.80
2018-03-15T01:27:13.076Z,20.98
2018-03-15T01:29:43.041Z,19.45
2018-03-15T01:32:12.057Z,16.50
2018-03-15T01:34:40.908Z,14.50
2018-03-15T01:39:44.953Z,9.38
2018-03-15T01:42:14.658Z,10.82
2018-03-15T01:44:43.567Z,19.45
2018-03-15T01:47:13.368Z,15.70
2018-03-15T01:49:42.250Z,12.88
2018-03-15T01:52:11.890Z,12.55
2018-03-15T01:54:41.554Z,13.88
2018-03-15T01:57:10.717Z,14.18
2018-03-15T01:59:39.632Z,17.90
2018-03-15T02:02:08.730Z,16.60
2018-03-15T02:04:38.745Z,14.18
2018-03-15T02:07:07.650Z,14.07
2018-03-15T02:09:36.552Z,14.38
2018-03-15T02:12:05.464Z,12.93
2018-03-15T02:14:34.311Z,10.80
2018-03-15T02:17:03.080Z,11.12
2018-03-15T02:19:31.957Z,10.38
2018-03-15T02:22:00.979Z,10.65
2018-03-15T02:24:29.881Z,10.75
2018-03-15T02:26:58.672Z,11.45
2018-03-15T02:29:27.546Z,11.35
2018-03-15T02:31:57.214Z,11.27
2018-03-15T02:34:26.060Z,10.55
2018-03-15T02:36:55.137Z,10.93
2018-03-15T02:39:24.892Z,8.93
2018-03-15T02:41:54.789Z,9.05
2018-03-15T02:44:23.820Z,9.15
2018-03-15T02:46:52.769Z,9.30
2018-03-15T02:49:21.544Z,9.38
2018-03-15T02:51:51.362Z,8.52
2018-03-15T02:54:20.298Z,9.32
2018-03-15T02:56:49.964Z,8.90
2018-03-15T02:59:18.777Z,8.90
2018-03-15T03:01:47.733Z,9.30
2018-03-15T03:04:16.546Z,10.15
2018-03-15T03:06:46.242Z,10.65
2018-03-15T03:09:15.141Z,10.85
2018-03-15T03:11:43.968Z,11.10
2018-03-15T03:14:13.799Z,11.30
2018-03-15T03:16:42.716Z,10.30
2018-03-15T03:19:11.615Z,10.93
2018-03-15T03:21:40.742Z,10.98
2018-03-15T03:24:09.847Z,11.32
2018-03-15T03:26:38.813Z,12.10
2018-03-15T03:29:08.037Z,11.50
2018-03-15T03:31:36.919Z,13.80
2018-03-15T03:34:05.824Z,13.10
2018-03-15T03:36:34.859Z,12.57
2018-03-15T03:39:04.573Z,12.18
2018-03-15T03:41:33.428Z,12.37
2018-03-15T03:44:02.299Z,12.70
2018-03-15T03:46:31.876Z,12.98
2018-03-15T03:49:00.756Z,13.57
2018-03-15T03:51:29.588Z,13.90
2018-03-15T03:53:59.429Z,17.95
2018-03-15T03:56:28.470Z,19.27
2018-03-15T03:58:57.348Z,19.73
2018-03-15T04:01:26.257Z,18.58
2018-03-15T04:03:55.151Z,19.30
2018-03-15T04:06:24.001Z,18.08
2018-03-15T04:08:53.783Z,17.02
2018-03-15T04:11:22.675Z,16.08
2018-03-15T04:13:51.619Z,16.45
2018-03-15T04:16:20.650Z,16.30
2018-03-15T04:18:49.588Z,15.95
2018-03-15T04:21:19.273Z,14.02
2018-03-15T04:23:48.281Z,14.73
2018-03-15T04:26:17.316Z,15.05
2018-03-15T04:28:46.152Z,16.48
2018-03-15T04:31:14.997Z,14.50
2018-03-15T04:33:44.137Z,14.18
2018-03-15T04:36:13.085Z,14.63
2018-03-15T04:38:42.142Z,15.80
2018-03-15T04:41:12.166Z,16.85
2018-03-15T04:43:41.656Z,16.65
2018-03-15T04:46:10.766Z,17.95
2018-03-15T04:48:40.511Z,17.10
2018-03-15T04:51:10.212Z,16.70
2018-03-15T04:53:39.049Z,15.90
2018-03-15T04:56:08.861Z,15.00
2018-03-15T04:58:38.529Z,17.95
2018-03-15T05:01:07.669Z,20.30
2018-03-15T05:03:37.523Z,24.67
2018-03-15T05:06:06.382Z,27.00
2018-03-15T05:08:36.078Z,35.45
2018-03-15T05:11:05.792Z,36.47
2018-03-15T05:13:35.423Z,36.40
2018-03-15T05:16:04.514Z,44.73
2018-03-15T05:18:34.118Z,35.27
2018-03-15T05:21:03.020Z,32.50
2018-03-15T05:23:31.906Z,31.27
2018-03-15T05:26:01.700Z,28.83
2018-03-15T05:28:30.570Z,27.47
2018-03-15T05:30:59.724Z,25.63
2018-03-15T05:33:28.718Z,25.50
2018-03-15T05:35:57.514Z,23.40
2018-03-15T05:38:26.482Z,23.90
2018-03-15T05:40:55.493Z,22.92
2018-03-15T05:43:24.591Z,25.10
2018-03-15T05:45:53.503Z,25.03
2018-03-15T05:48:22.375Z,27.17
2018-03-15T05:50:51.224Z,25.63
2018-03-15T05:53:20.844Z,20.20
2018-03-15T05:55:50.513Z,18.37
2018-03-15T05:58:19.481Z,18.53
2018-03-15T06:00:48.581Z,20.10
2018-03-15T06:03:17.873Z,20.93
2018-03-15T06:05:46.792Z,17.10
2018-03-15T06:08:15.580Z,17.20
2018-03-15T06:10:44.447Z,19.50
2018-03-15T06:13:13.316Z,20.40
2018-03-15T06:15:42.418Z,20.00
2018-03-15T06:18:11.398Z,20.83
2018-03-15T06:20:40.277Z,17.97
2018-03-15T06:23:09.364Z,16.53
2018-03-15T06:25:39.177Z,15.00
2018-03-15T06:28:08.902Z,16.43
2018-03-15T06:30:38.205Z,16.50
2018-03-15T06:33:07.129Z,18.90
2018-03-15T06:35:35.932Z,22.10
2018-03-15T06:38:05.178Z,22.07
2018-03-15T06:40:34.081Z,19.77
2018-03-15T06:43:03.244Z,22.10
2018-03-15T06:45:33.081Z,23.63
2018-03-15T06:48:02.194Z,25.27
2018-03-15T06:50:31.582Z,26.60
2018-03-15T06:53:00.458Z,25.70
2018-03-15T06:55:29.466Z,24.53
2018-03-15T06:57:59.074Z,52.47
2018-03-15T07:00:27.917Z,40.23
2018-03-15T07:02:56.764Z,36.07
2018-03-15T07:05:25.790Z,36.63
2018-03-15T07:07:54.896Z,42.47
2018-03-15T07:10:23.949Z,44.07
2018-03-15T07:12:52.800Z,39.43
2018-03-15T07:15:21.689Z,36.37
2018-03-15T07:17:50.652Z,35.87
2018-03-15T07:20:19.544Z,34.20
2018-03-15T07:22:48.408Z,33.13
2018-03-15T07:25:17.248Z,45.47
2018-03-15T07:27:46.106Z,44.40
2018-03-15T07:30:14.953Z,42.13
2018-03-15T07:32:44.142Z,43.67
2018-03-15T07:35:13.502Z,45.10
2018-03-15T07:37:42.586Z,49.30
2018-03-15T07:40:11.557Z,49.80
2018-03-15T07:42:40.826Z,42.80
2018-03-15T07:45:09.929Z,42.43
2018-03-15T07:47:39.588Z,41.97
2018-03-15T07:50:08.587Z,39.43
2018-03-15T07:52:38.354Z,35.43
2018-03-15T07:55:07.265Z,31.67
2018-03-15T07:57:36.140Z,34.10
2018-03-15T08:00:05.342Z,38.20
2018-03-15T08:02:35.338Z,29.80
2018-03-15T08:05:04.804Z,27.00
2018-03-15T08:07:33.737Z,30.87
2018-03-15T08:10:03.397Z,26.73
2018-03-15T08:12:32.273Z,23.43
2018-03-15T08:15:01.292Z,26.13
2018-03-15T08:17:31.068Z,28.50
2018-03-15T08:19:59.922Z,25.93
2018-03-15T08:22:29.531Z,29.30
2018-03-15T08:24:58.349Z,28.73
2018-03-15T08:27:28.048Z,28.20
2018-03-15T08:29:57.714Z,25.60
2018-03-15T08:32:26.678Z,28.07
2018-03-15T08:34:55.602Z,30.27
2018-03-15T08:37:25.068Z,27.37
2018-03-15T08:39:54.172Z,25.57
2018-03-15T08:42:23.136Z,26.33
2018-03-15T08:44:52.956Z,25.10
2018-03-15T08:47:21.809Z,27.00
2018-03-15T08:49:51.431Z,26.37
2018-03-15T08:52:20.346Z,25.57
2018-03-15T08:54:50.156Z,23.33
2018-03-15T08:57:19.055Z,23.03
2018-03-15T08:59:49.038Z,22.40
2018-03-15T09:02:17.966Z,18.97
2018-03-15T09:04:46.980Z,17.83
2018-03-15T09:07:16.248Z,13.07
2018-03-15T09:09:45.241Z,12.57
2018-03-15T09:12:14.435Z,11.20
2018-03-15T09:14:43.362Z,9.53
2018-03-15T09:17:12.279Z,9.90
2018-03-15T09:19:41.430Z,10.70
2018-03-15T09:22:12.149Z,9.50
2018-03-15T09:24:41.104Z,10.87
2018-03-15T09:27:10.715Z,22.53
2018-03-15T09:29:40.344Z,16.00
2018-03-15T09:32:09.264Z,25.00
2018-03-15T09:34:38.979Z,9.47
2018-03-15T09:37:07.937Z,18.17
2018-03-15T09:39:37.017Z,11.87
2018-03-15T09:42:06.482Z,23.90
2018-03-15T09:44:36.248Z,51.90
2018-03-15T09:47:05.118Z,31.47
2018-03-15T09:49:34.029Z,21.80
2018-03-15T09:52:03.101Z,16.40
2018-03-15T09:54:33.073Z,13.27
2018-03-15T09:57:02.712Z,13.27
2018-03-15T09:59:32.456Z,11.10
2018-03-15T10:02:02.145Z,11.00
2018-03-15T10:04:32.044Z,16.47
2018-03-15T10:07:00.907Z,13.17
2018-03-15T10:09:29.793Z,15.63
2018-03-15T10:11:59.008Z,11.80
2018-03-15T10:14:29.001Z,16.73
2018-03-15T10:16:57.960Z,13.80
2018-03-15T10:19:27.718Z,7.73
2018-03-15T10:21:56.506Z,6.47
2018-03-15T10:24:25.704Z,6.37
2018-03-15T10:26:55.380Z,7.20
2018-03-15T10:29:25.298Z,7.37
2018-03-15T10:31:54.296Z,8.77
2018-03-15T10:34:24.239Z,10.27
2018-03-15T10:36:53.817Z,9.30
2018-03-15T10:39:24.260Z,10.07
2018-03-15T10:41:53.112Z,10.83
2018-03-15T10:44:22.411Z,9.70
2018-03-15T10:46:51.434Z,12.07
2018-03-15T10:49:20.340Z,13.83
2018-03-15T10:51:50.143Z,11.00
2018-03-15T10:54:18.968Z,10.10
2018-03-15T10:56:47.996Z,10.50
2018-03-15T10:59:18.144Z,13.37
2018-03-15T11:01:49.879Z,14.00
2018-03-15T11:04:18.868Z,11.93
2018-03-15T11:06:53.577Z,11.00
2018-03-15T11:09:24.016Z,8.77
2018-03-15T11:11:53.124Z,8.47
2018-03-15T11:14:22.217Z,6.37
2018-03-15T11:16:51.221Z,9.13
2018-03-15T11:19:20.100Z,8.93
2018-03-15T11:21:49.010Z,7.20
2018-03-15T11:24:17.900Z,6.33
2018-03-15T11:26:46.868Z,6.20
2018-03-15T11:29:16.033Z,5.63
2018-03-15T11:31:45.848Z,7.53
2018-03-15T11:34:15.073Z,6.40
2018-03-15T11:36:43.999Z,7.80
2018-03-15T11:39:12.995Z,7.73
2018-03-15T11:41:42.673Z,7.47
2018-03-15T11:44:11.953Z,8.03
2018-03-15T11:46:40.832Z,8.37
2018-03-15T11:49:09.706Z,8.37
2018-03-15T11:51:38.737Z,5.83
2018-03-15T11:54:08.364Z,6.10
2018-03-15T11:56:38.455Z,5.20
2018-03-15T11:59:07.376Z,7.07
2018-03-15T12:01:36.498Z,7.30
2018-03-15T12:04:05.456Z,6.93
2018-03-15T12:06:34.656Z,6.30
2018-03-15T12:09:03.729Z,5.67
2018-03-15T12:11:32.943Z,6.53
2018-03-15T12:14:01.838Z,6.80
2018-03-15T12:16:30.708Z,6.37
2018-03-15T12:19:04.421Z,4.73
2018-03-15T12:21:33.233Z,5.23
2018-03-15T12:24:02.182Z,4.77
2018-03-15T12:26:31.085Z,4.93
2018-03-15T12:29:00.143Z,5.50
2018-03-15T12:31:29.066Z,3.93
2018-03-15T12:33:58.677Z,3.87
2018-03-15T12:36:27.974Z,4.30
2018-03-15T12:38:57.606Z,3.30
2018-03-15T12:41:26.687Z,3.70
2018-03-15T12:43:56.337Z,17.13
2018-03-15T12:46:25.217Z,21.63
2018-03-15T12:48:54.174Z,18.37
2018-03-15T12:51:23.797Z,17.57
2018-03-15T12:53:53.604Z,8.07
2018-03-15T12:56:23.226Z,4.17
2018-03-15T12:58:52.397Z,4.23
2018-03-15T13:01:21.520Z,2.97
2018-03-15T13:03:50.638Z,3.30
2018-03-15T13:06:19.864Z,4.87
2018-03-15T13:08:50.211Z,3.03
2018-03-15T13:11:19.182Z,3.77
2018-03-15T13:13:48.320Z,6.27
2018-03-15T13:16:17.404Z,7.03
2018-03-15T13:18:46.213Z,4.23
2018-03-15T13:21:16.035Z,3.40
2018-03-15T13:23:44.862Z,2.80
2018-03-15T13:26:13.710Z,3.13
2018-03-15T13:28:42.873Z,3.30
2018-03-15T13:31:12.756Z,2.90
2018-03-15T13:33:41.605Z,2.60
2018-03-15T13:36:10.569Z,3.13
2018-03-15T13:38:39.860Z,3.07
2018-03-15T13:41:08.973Z,3.10
2018-03-15T13:43:38.661Z,3.50
2018-03-15T13:46:07.607Z,3.57
2018-03-15T13:48:36.516Z,2.73
2018-03-15T13:51:06.324Z,4.47
2018-03-15T13:53:35.144Z,3.40
2018-03-15T13:56:04.102Z,3.30
2018-03-15T13:58:33.073Z,3.00
2018-03-15T14:01:01.944Z,3.73
2018-03-15T14:03:33.938Z,3.27
2018-03-15T14:06:03.010Z,3.87
2018-03-15T14:08:31.957Z,3.00
2018-03-15T14:11:01.272Z,2.97
2018-03-15T14:13:30.047Z,4.10
2018-03-15T14:15:59.189Z,4.00
2018-03-15T14:18:28.802Z,4.33
2018-03-15T14:20:58.511Z,3.37
2018-03-15T14:23:27.370Z,5.10
2018-03-15T14:25:57.219Z,3.60
2018-03-15T14:28:26.857Z,4.03
2018-03-15T14:30:55.660Z,3.77
2018-03-15T14:33:24.504Z,3.40
2018-03-15T14:35:54.366Z,4.27
2018-03-15T14:38:23.228Z,4.20
2018-03-15T14:40:53.088Z,5.23
2018-03-15T14:43:22.286Z,4.13
2018-03-15T14:45:51.904Z,5.47
2018-03-15T14:48:21.555Z,4.70
2018-03-15T14:50:50.401Z,4.80
2018-03-15T14:53:20.095Z,3.50
2018-03-15T14:55:48.973Z,3.83
2018-03-15T14:58:17.887Z,3.20
2018-03-15T15:00:46.948Z,3.73
2018-03-15T15:03:16.318Z,4.07
2018-03-15T15:05:45.908Z,3.70
2018-03-15T15:08:14.934Z,3.60
2018-03-15T15:10:44.594Z,5.37
2018-03-15T15:13:14.200Z,4.90
2018-03-15T15:15:43.433Z,3.70
2018-03-15T15:18:12.366Z,4.60
2018-03-15T15:20:41.352Z,4.30
2018-03-15T15:23:10.919Z,4.90
2018-03-15T15:25:40.507Z,5.03
2018-03-15T15:28:09.417Z,4.47
2018-03-15T15:30:38.360Z,5.17
2018-03-15T15:33:07.186Z,4.97
2018-03-15T15:35:36.100Z,4.77
2018-03-15T15:38:05.113Z,4.47
2018-03-15T15:40:34.174Z,5.20
2018-03-15T15:43:04.434Z,4.77
2018-03-15T15:45:35.304Z,5.93
2018-03-15T15:48:04.277Z,7.17
2018-03-15T15:50:33.364Z,8.87
2018-03-15T15:53:02.288Z,10.23
2018-03-15T15:55:31.405Z,11.90
2018-03-15T15:58:01.214Z,11.87
2018-03-15T16:00:30.324Z,12.87
2018-03-15T16:02:59.217Z,12.00
2018-03-15T16:05:28.116Z,10.97
2018-03-15T16:07:58.836Z,10.63
2018-03-15T16:10:27.824Z,11.43
2018-03-15T16:12:57.012Z,12.93
2018-03-15T16:15:25.920Z,17.17
2018-03-15T16:17:54.824Z,19.20
2018-03-15T16:20:24.742Z,13.10
2018-03-15T16:22:54.466Z,13.97
2018-03-15T16:25:23.617Z,12.40
2018-03-15T16:27:54.141Z,13.13
2018-03-15T16:30:23.909Z,12.93
2018-03-15T16:32:52.988Z,11.10
2018-03-15T16:35:21.908Z,12.40
2018-03-15T16:37:51.647Z,15.33
2018-03-15T16:40:21.246Z,14.03
2018-03-15T16:42:51.068Z,14.07
2018-03-15T16:45:20.058Z,16.57
2018-03-15T16:47:49.060Z,18.73
2018-03-15T16:50:18.097Z,21.87
2018-03-15T16:52:47.084Z,28.90
2018-03-15T16:55:16.001Z,38.00
2018-03-15T16:57:44.884Z,41.50
2018-03-15T17:00:13.911Z,44.30
2018-03-15T17:02:43.500Z,48.60
2018-03-15T17:05:13.233Z,40.13
2018-03-15T17:07:42.852Z,50.53
2018-03-15T17:10:11.703Z,53.70
2018-03-15T17:12:40.867Z,50.60
2018-03-15T17:15:09.907Z,50.83
2018-03-15T17:17:38.745Z,40.77
2018-03-15T17:20:07.605Z,53.43
2018-03-15T17:22:36.527Z,46.30
2018-03-15T17:25:05.501Z,32.53
2018-03-15T17:27:34.365Z,28.47
2018-03-15T17:30:04.336Z,20.73
2018-03-15T17:32:33.404Z,31.67
2018-03-15T17:35:02.269Z,53.27
2018-03-15T17:37:31.183Z,99.67
2018-03-15T17:40:00.821Z,69.40
2018-03-15T17:42:29.615Z,43.67
2018-03-15T17:44:58.720Z,59.23
2018-03-15T17:47:27.841Z,39.53
2018-03-15T17:49:56.872Z,29.87
2018-03-15T17:52:26.040Z,27.67
2018-03-15T17:54:55.026Z,19.83
2018-03-15T17:57:23.920Z,19.37
2018-03-15T17:59:52.867Z,22.03
2018-03-15T18:02:22.083Z,22.53
2018-03-15T18:04:51.460Z,29.00
2018-03-15T18:07:20.843Z,27.53
2018-03-15T18:09:49.977Z,22.47
2018-03-15T18:25:19.267Z,18.70
2018-03-15T18:27:48.703Z,23.77
2018-03-15T18:30:18.748Z,27.73
2018-03-15T18:32:48.073Z,126.90
2018-03-15T18:35:18.229Z,72.60
2018-03-15T18:37:47.713Z,74.33
2018-03-15T18:40:17.047Z,71.07
2018-03-15T18:42:46.420Z,68.03
2018-03-15T18:45:15.715Z,67.87
2018-03-15T18:47:45.399Z,70.60
2018-03-15T18:50:15.260Z,100.07
2018-03-15T18:52:44.683Z,101.60
2018-03-15T18:55:14.049Z,63.83
2018-03-15T18:57:44.000Z,67.97
2018-03-15T19:00:13.300Z,78.33
2018-03-15T19:02:43.309Z,73.30
2018-03-15T19:05:13.080Z,92.47
2018-03-15T19:07:42.324Z,98.50
2018-03-15T19:10:11.732Z,88.13
2018-03-15T19:12:41.068Z,83.50
2018-03-15T19:17:45.740Z,65.97
2018-03-15T19:20:15.065Z,66.97
2018-03-15T19:22:44.343Z,71.03
2018-03-15T19:25:13.643Z,69.03
2018-03-15T19:27:42.828Z,69.63
2018-03-15T19:30:12.131Z,75.27
2018-03-15T19:32:41.553Z,73.30
2018-03-15T19:35:10.750Z,75.90
2018-03-15T19:37:40.119Z,79.90
2018-03-15T19:40:09.452Z,79.87
2018-03-15T19:42:38.864Z,68.60
2018-03-15T19:45:08.355Z,55.37
2018-03-15T19:47:37.981Z,42.90
2018-03-15T19:50:08.469Z,37.83
2018-03-15T19:52:38.414Z,28.73
2018-03-15T19:55:07.803Z,29.37
2018-03-15T19:57:38.667Z,19.43
2018-03-15T20:00:09.889Z,17.35
2018-03-15T20:02:40.044Z,17.30
2018-03-15T20:05:09.359Z,18.97
2018-03-15T20:07:38.759Z,20.40
2018-03-15T20:10:09.161Z,39.05
2018-03-15T20:12:38.848Z,28.35
2018-03-15T20:15:08.323Z,31.77
2018-03-15T20:17:39.351Z,36.00
2018-03-15T20:20:11.094Z,38.35
2018-03-15T20:22:46.643Z,44.33
2018-03-15T20:25:15.693Z,53.55
2018-03-15T20:27:50.439Z,55.12
2018-03-15T20:30:19.473Z,57.05
2018-03-15T20:32:54.276Z,65.40
2018-03-15T20:35:23.276Z,62.10
2018-03-15T20:37:52.195Z,43.97
2018-03-15T20:40:40.008Z,30.08
2018-03-15T20:43:08.934Z,25.85
2018-03-15T20:45:43.336Z,24.63
2018-03-15T20:48:20.483Z,19.62
2018-03-15T20:50:49.557Z,18.15
2018-03-15T20:53:18.571Z,17.42
2018-03-15T20:55:47.577Z,16.77
2018-03-15T20:58:16.561Z,16.90
2018-03-15T21:00:45.420Z,17.37
2018-03-15T21:03:14.548Z,16.60
2018-03-15T21:05:43.706Z,18.40
2018-03-15T21:08:12.569Z,18.60
2018-03-15T21:10:41.748Z,19.17
2018-03-15T21:13:10.744Z,19.95
2018-03-15T21:15:40.483Z,21.60
2018-03-15T21:18:10.895Z,23.85
2018-03-15T21:20:40.048Z,23.42
2018-03-15T21:23:08.900Z,25.80
2018-03-15T21:25:39.058Z,24.92
2018-03-15T21:28:08.330Z,29.52
2018-03-15T21:30:37.983Z,29.27
2018-03-15T21:33:07.717Z,30.00
2018-03-15T21:35:36.509Z,28.52
2018-03-15T21:38:05.380Z,29.25
2018-03-15T21:40:34.154Z,30.33
2018-03-15T21:43:03.149Z,34.08
2018-03-15T21:45:32.884Z,30.15
2018-03-15T21:48:01.825Z,30.33
2018-03-15T21:50:31.351Z,30.10
2018-03-15T21:53:00.293Z,38.38
2018-03-15T21:55:29.091Z,39.28
2018-03-15T21:57:57.969Z,37.72
2018-03-15T22:00:28.116Z,38.95
2018-03-15T22:02:56.959Z,43.63
2018-03-15T22:05:25.898Z,40.15
2018-03-15T22:07:54.866Z,36.05
2018-03-15T22:10:23.698Z,30.05
2018-03-15T22:12:52.501Z,26.33
2018-03-15T22:15:22.159Z,27.15
2018-03-15T22:17:51.021Z,27.98
2018-03-15T22:20:20.108Z,27.10
2018-03-15T22:22:49.043Z,24.95
2018-03-15T22:25:18.488Z,24.73
2018-03-15T22:27:47.859Z,25.90
2018-03-15T22:30:16.763Z,26.58
2018-03-15T22:32:45.679Z,26.37
2018-03-15T22:35:15.552Z,27.80
2018-03-15T22:37:45.256Z,27.67
2018-03-15T22:40:15.384Z,29.27
2018-03-15T22:42:44.529Z,28.92
2018-03-15T22:45:14.273Z,29.60
2018-03-15T22:47:43.973Z,29.25
2018-03-15T22:50:12.925Z,29.63
2018-03-15T22:52:42.720Z,28.90
2018-03-15T22:55:11.653Z,30.88
2018-03-15T22:57:40.752Z,29.30
2018-03-15T23:00:10.523Z,27.75
2018-03-15T23:02:39.310Z,27.77
2018-03-15T23:05:08.378Z,27.73
2018-03-15T23:07:37.252Z,29.33
2018-03-15T23:10:06.468Z,27.65
2018-03-15T23:12:35.313Z,29.10
2018-03-15T23:15:04.211Z,29.67
2018-03-15T23:17:33.430Z,29.30
2018-03-15T23:20:02.168Z,30.85
2018-03-15T23:22:31.356Z,29.08
2018-03-15T23:25:01.040Z,30.62
2018-03-15T23:27:30.226Z,31.00
2018-03-15T23:29:59.375Z,30.98
2018-03-15T23:32:29.086Z,32.45
2018-03-15T23:34:58.040Z,31.65
2018-03-15T23:37:26.849Z,30.42
2018-03-15T23:39:56.576Z,31.23
2018-03-15T23:42:25.531Z,30.95
2018-03-15T23:44:54.320Z,30.27
2018-03-15T23:47:23.576Z,30.42
2018-03-15T23:49:52.587Z,29.87
2018-03-15T23:52:22.170Z,30.35
2018-03-15T23:54:51.772Z,30.45
2018-03-15T23:57:20.447Z,29.30
2018-03-15T23:59:49.458Z,29.42
